Time;durP1;ratioP1;P1;durP2;ratioP2;P2;SDS_P1;SDS_P2;PMS_P1;PMS_P2;Temp;Humidity;BMP_temperature;BMP_pressure;BME280_temperature;BME280_humidity;BME280_pressure;Samples;Min_cycle;Max_cycle;Signal;HPM_P1;HPM_P2
2022/07/18 00:02:02;;;;;;;1.52;0.70;;;;;;;17.56;44.43;98925.50;5025046;28;20386;-87
2022/07/18 00:04:30;;;;;;;1.15;0.80;;;;;;;17.50;44.39;98905.19;5032554;28;20041;-87
2022/07/18 00:06:57;;;;;;;1.05;0.80;;;;;;;17.58;44.94;98923.47;5021800;28;20053;-87
2022/07/18 00:09:24;;;;;;;0.90;0.82;;;;;;;17.58;45.59;98910.19;5027592;28;20092;-86
2022/07/18 00:11:52;;;;;;;0.77;0.70;;;;;;;17.64;44.94;98922.56;5031277;28;20045;-87
2022/07/18 00:14:21;;;;;;;0.80;0.80;;;;;;;17.45;43.77;98920.97;5032360;28;20481;-87
2022/07/18 00:16:49;;;;;;;1.17;0.77;;;;;;;17.30;45.71;98911.56;5032928;28;20053;-87
2022/07/18 00:19:17;;;;;;;0.93;0.80;;;;;;;17.37;45.78;98919.44;5017922;28;20068;-87
2022/07/18 00:21:44;;;;;;;1.08;0.68;;;;;;;17.32;45.13;98914.00;5018934;28;20535;-87
2022/07/18 00:24:11;;;;;;;1.10;1.00;;;;;;;17.04;44.94;98910.03;5040594;28;20125;-87
2022/07/18 00:26:37;;;;;;;0.90;0.80;;;;;;;16.81;46.02;98918.66;5021452;28;20498;-87
2022/07/18 00:29:04;;;;;;;0.82;0.75;;;;;;;16.78;46.62;98924.38;5030444;28;20091;-87
2022/07/18 00:31:32;;;;;;;0.80;0.80;;;;;;;16.75;45.71;98940.72;5011376;28;20049;-86
2022/07/18 00:33:59;;;;;;;1.15;0.75;;;;;;;16.84;47.67;98938.56;5031201;28;20049;-87
2022/07/18 00:40:33;;;;;;;1.10;1.00;;;;;;;16.35;48.58;98936.75;5026078;28;20037;-86
2022/07/18 00:43:00;;;;;;;1.58;1.20;;;;;;;16.08;49.27;98926.38;5026261;28;20037;-87
2022/07/18 00:45:27;;;;;;;1.52;1.10;;;;;;;15.95;49.71;98935.25;5027445;28;20038;-87
2022/07/18 00:47:54;;;;;;;0.82;0.82;;;;;;;15.95;51.17;98934.41;5028815;28;20096;-86
2022/07/18 00:50:23;;;;;;;0.73;0.73;;;;;;;16.23;53.07;98941.94;5023018;28;20053;-87
2022/07/18 00:52:50;;;;;;;1.17;0.90;;;;;;;16.28;51.97;98931.53;5017870;28;20112;-87
2022/07/18 00:55:16;;;;;;;1.15;0.90;;;;;;;16.40;52.35;98940.38;5012161;28;20136;-86
2022/07/18 00:57:43;;;;;;;1.10;1.00;;;;;;;16.44;51.02;98927.53;5012689;28;20121;-87
2022/07/18 01:02:59;;;;;;;1.50;0.80;;;;;;;16.53;51.67;98931.50;5019083;28;20048;-87
2022/07/18 01:05:26;;;;;;;1.40;0.98;;;;;;;16.46;51.79;98920.19;5031431;28;20131;-87
2022/07/18 01:07:53;;;;;;;0.80;0.80;;;;;;;16.51;51.60;98934.38;5011760;28;20038;-87
2022/07/18 01:10:19;;;;;;;1.00;0.90;;;;;;;16.56;52.08;98925.81;5013513;28;20053;-87
2022/07/18 01:12:46;;;;;;;0.93;0.90;;;;;;;16.51;51.50;98928.28;5007625;28;20417;-87
2022/07/18 01:15:13;;;;;;;0.80;0.80;;;;;;;16.41;49.79;98923.47;5023692;28;20052;-86
2022/07/18 01:17:40;;;;;;;0.93;0.90;;;;;;;16.41;51.87;98934.06;5025568;28;20065;-87
2022/07/18 01:20:14;;;;;;;0.90;0.90;;;;;;;16.46;53.27;98936.88;5011475;28;20052;-87
2022/07/18 01:22:41;;;;;;;1.05;0.90;;;;;;;16.49;51.44;98925.03;5011928;28;20073;-87
2022/07/18 01:25:14;;;;;;;1.33;0.80;;;;;;;16.45;51.01;98921.22;5011709;28;20494;-87
2022/07/18 01:27:42;;;;;;;1.30;0.90;;;;;;;16.44;52.31;98922.25;5000236;28;20053;-87
2022/07/18 01:30:09;;;;;;;0.82;0.80;;;;;;;16.42;53.75;98921.63;5011877;28;20469;-86
2022/07/18 01:32:36;;;;;;;0.73;0.73;;;;;;;16.48;53.55;98923.41;5012050;28;20073;-87
2022/07/18 01:35:04;;;;;;;1.13;0.90;;;;;;;16.42;52.98;98924.28;5021386;28;20041;-87
2022/07/18 01:37:30;;;;;;;1.02;0.85;;;;;;;16.25;51.04;98913.41;5029946;28;20076;-87
2022/07/18 01:39:57;;;;;;;0.95;0.85;;;;;;;16.19;52.53;98915.13;5015769;28;20058;-87
2022/07/18 01:42:24;;;;;;;0.95;0.90;;;;;;;16.03;51.66;98934.97;5024434;28;20076;-87
2022/07/18 01:44:50;;;;;;;0.80;0.80;;;;;;;15.97;51.87;98927.06;5023239;28;20077;-87
2022/07/18 01:47:17;;;;;;;1.05;0.93;;;;;;;16.05;53.85;98935.56;5011715;28;20521;-86
2022/07/18 01:49:44;;;;;;;1.35;0.95;;;;;;;16.06;54.18;98925.78;5026207;28;20064;-87
2022/07/18 01:52:10;;;;;;;2.45;1.00;;;;;;;16.13;54.43;98933.66;5029774;28;20088;-87
2022/07/18 01:54:37;;;;;;;1.00;0.95;;;;;;;16.10;53.66;98926.97;5015426;28;20057;-86
2022/07/18 01:57:06;;;;;;;0.80;0.80;;;;;;;16.12;52.47;98934.69;5010280;28;20129;-87
2022/07/18 01:59:33;;;;;;;1.00;0.90;;;;;;;16.05;51.24;98924.97;5029773;28;20042;-87
2022/07/18 02:02:03;;;;;;;1.85;1.02;;;;;;;16.05;52.89;98929.44;5015200;28;20080;-87
2022/07/18 02:07:15;;;;;;;1.27;0.80;;;;;;;15.98;51.33;98940.09;5019622;28;20054;-87
2022/07/18 02:09:42;;;;;;;0.70;0.70;;;;;;;15.97;53.07;98938.47;5026718;28;20076;-87
2022/07/18 02:12:08;;;;;;;0.93;0.90;;;;;;;15.84;52.30;98921.88;5025520;28;20099;-87
2022/07/18 02:14:35;;;;;;;2.13;0.95;;;;;;;15.84;52.24;98943.03;5029246;28;20111;-87
2022/07/18 02:17:01;;;;;;;0.80;0.80;;;;;;;15.72;52.68;98930.50;5030773;28;20068;-87
2022/07/18 02:19:28;;;;;;;0.80;0.80;;;;;;;15.58;51.20;98933.38;5020788;28;20523;-87
2022/07/18 02:21:55;;;;;;;0.80;0.80;;;;;;;15.52;53.40;98921.81;5010507;28;20045;-87
2022/07/18 02:24:21;;;;;;;1.27;0.90;;;;;;;15.66;53.17;98947.19;5001482;28;20052;-87
2022/07/18 02:26:48;;;;;;;0.90;0.90;;;;;;;15.63;54.42;98915.88;5027270;28;20069;-87
2022/07/18 02:29:15;;;;;;;1.00;0.90;;;;;;;15.79;53.78;98943.66;5030493;28;20079;-86
2022/07/18 02:31:41;;;;;;;0.95;0.80;;;;;;;15.70;52.44;98939.63;5029399;28;20069;-87
2022/07/18 02:34:11;;;;;;;0.93;0.88;;;;;;;15.67;52.41;98932.94;5026123;28;20103;-87
2022/07/18 02:36:40;;;;;;;1.38;0.80;;;;;;;15.67;53.38;98948.81;5010919;28;20482;-87
2022/07/18 02:39:08;;;;;;;0.85;0.85;;;;;;;15.68;53.62;98944.34;5026220;28;20073;-87
2022/07/18 02:41:35;;;;;;;1.02;0.93;;;;;;;15.66;54.32;98941.09;5029077;28;20501;-87
2022/07/18 02:44:03;;;;;;;1.33;0.90;;;;;;;15.66;54.06;98941.91;5027983;28;20828;-86
2022/07/18 02:46:30;;;;;;;1.65;0.90;;;;;;;15.63;54.84;98939.69;5010747;28;20409;-87
2022/07/18 02:48:57;;;;;;;1.25;0.70;;;;;;;15.56;54.68;98930.94;5007776;28;20080;-87
2022/07/18 02:51:24;;;;;;;0.88;0.82;;;;;;;15.57;55.04;98937.84;5018152;28;20041;-86
2022/07/18 02:53:50;;;;;;;0.80;0.80;;;;;;;15.57;54.09;98940.50;5012445;28;20128;-86
2022/07/18 02:56:17;;;;;;;2.00;1.00;;;;;;;15.51;53.10;98941.34;5018703;28;20095;-87
2022/07/18 02:58:44;;;;;;;0.95;0.93;;;;;;;15.46;53.45;98938.50;5004068;28;20469;-87
2022/07/18 03:01:10;;;;;;;1.05;0.80;;;;;;;15.54;54.50;98956.78;5011153;28;20038;-86
2022/07/18 03:03:38;;;;;;;1.92;1.00;;;;;;;15.53;55.12;98953.34;5012850;28;20049;-87
2022/07/18 03:06:04;;;;;;;1.00;0.90;;;;;;;15.49;54.45;98948.69;5014045;28;20092;-87
2022/07/18 03:08:31;;;;;;;1.48;1.13;;;;;;;15.38;54.55;98944.03;5009786;28;20088;-87
2022/07/18 03:10:58;;;;;;;2.10;1.10;;;;;;;15.46;54.25;98952.53;5024939;28;20068;-86
2022/07/18 03:13:25;;;;;;;1.10;0.75;;;;;;;15.34;54.33;98948.13;5041279;28;20457;-86
2022/07/18 03:15:51;;;;;;;0.90;0.90;;;;;;;15.32;54.92;98942.25;5009148;28;20073;-86
2022/07/18 03:18:18;;;;;;;1.45;1.05;;;;;;;15.32;55.79;98940.41;5024854;28;20064;-86
2022/07/18 03:21:01;;;;;;;1.23;1.10;;;;;;;15.33;55.69;98939.38;5014256;28;20124;-86
2022/07/18 03:23:28;;;;;;;1.30;1.10;;;;;;;15.41;55.57;98944.44;5030372;28;20068;-86
2022/07/18 03:25:54;;;;;;;1.60;1.13;;;;;;;15.34;55.55;98937.53;5029816;28;20042;-86
2022/07/18 03:28:21;;;;;;;1.25;1.17;;;;;;;15.34;56.53;98937.53;5013959;28;20038;-87
2022/07/18 03:30:48;;;;;;;1.20;1.10;;;;;;;15.33;56.07;98935.91;5018914;28;20046;-87
2022/07/18 03:33:14;;;;;;;1.00;1.00;;;;;;;15.38;55.77;98944.03;5033277;28;20045;-86
2022/07/18 03:35:41;;;;;;;1.40;1.10;;;;;;;15.31;55.74;98937.97;5032916;28;20124;-86
2022/07/18 03:38:08;;;;;;;1.30;1.10;;;;;;;15.25;55.13;98935.16;5013823;28;20091;-87
2022/07/18 03:40:34;;;;;;;1.10;1.02;;;;;;;15.22;57.01;98946.13;5026095;28;20045;-86
2022/07/18 03:43:01;;;;;;;1.23;1.13;;;;;;;15.19;56.91;98938.63;5025235;28;20050;-87
2022/07/18 03:45:28;;;;;;;1.30;1.10;;;;;;;15.18;56.65;98937.00;5020705;28;20057;-86
2022/07/18 03:47:55;;;;;;;1.75;1.30;;;;;;;15.22;57.05;98947.94;5030331;28;20069;-86
2022/07/18 03:50:22;;;;;;;1.40;1.30;;;;;;;15.13;57.68;98936.81;5033678;28;20041;-86
2022/07/18 03:52:49;;;;;;;1.20;1.10;;;;;;;15.12;57.27;98942.31;5033880;28;20081;-86
2022/07/18 03:55:16;;;;;;;1.45;1.35;;;;;;;15.12;57.40;98939.66;5022208;28;20049;-86
2022/07/18 03:57:42;;;;;;;1.40;1.30;;;;;;;15.15;58.30;98944.53;5027260;28;20124;-86
2022/07/18 04:00:10;;;;;;;1.35;1.25;;;;;;;15.16;58.58;98946.13;5032175;28;20051;-87
2022/07/18 04:02:47;;;;;;;1.20;1.10;;;;;;;15.18;58.70;98949.41;5011794;28;20417;-86
2022/07/18 04:05:16;;;;;;;2.50;1.27;;;;;;;15.14;58.90;98942.91;5026787;28;20053;-86
2022/07/18 04:07:43;;;;;;;1.20;1.10;;;;;;;15.15;58.48;98934.75;5021656;28;20042;-86
2022/07/18 04:10:11;;;;;;;1.95;1.10;;;;;;;15.11;59.17;98933.53;5025051;28;20053;-86
2022/07/18 04:12:53;;;;;;;2.78;1.42;;;;;;;15.16;57.80;98936.38;5011806;28;20049;-86
2022/07/18 04:15:22;;;;;;;1.40;1.30;;;;;;;15.13;58.84;98942.09;5013850;28;20073;-87
2022/07/18 04:17:50;;;;;;;1.65;1.20;;;;;;;15.08;58.27;98941.91;5010361;28;20042;-87
2022/07/18 04:20:20;;;;;;;1.10;1.00;;;;;;;15.07;58.28;98937.66;5013590;28;20045;-87
2022/07/18 04:22:59;;;;;;;1.40;1.10;;;;;;;15.07;58.13;98940.28;5024783;28;20045;-87
2022/07/18 04:25:32;;;;;;;1.67;1.00;;;;;;;15.05;58.42;98946.78;5032769;28;20049;-86
2022/07/18 04:27:59;;;;;;;1.20;1.08;;;;;;;15.01;58.30;98949.03;5031965;28;20045;-87
2022/07/18 04:30:27;;;;;;;1.17;1.08;;;;;;;15.09;58.46;98945.34;5031335;28;20041;-86
2022/07/18 04:32:55;;;;;;;1.23;1.13;;;;;;;15.01;59.48;98938.47;5032523;28;20049;-86
2022/07/18 04:35:23;;;;;;;1.67;1.30;;;;;;;15.03;59.72;98947.00;5022316;28;20046;-86
2022/07/18 04:37:51;;;;;;;1.30;1.00;;;;;;;15.03;60.11;98941.72;5022114;28;20091;-86
2022/07/18 04:40:19;;;;;;;2.47;1.38;;;;;;;15.06;59.56;98940.50;5027445;28;20045;-86
2022/07/18 04:42:46;;;;;;;1.13;1.10;;;;;;;15.09;59.90;98948.81;5024582;28;20125;-86
2022/07/18 04:45:13;;;;;;;1.67;1.20;;;;;;;15.03;59.15;98947.00;5030141;28;20056;-88
2022/07/18 04:47:40;;;;;;;1.23;1.10;;;;;;;15.06;60.02;98951.88;5014310;28;20721;-87
2022/07/18 04:50:08;;;;;;;1.35;1.20;;;;;;;15.07;59.88;98952.69;5027106;28;20091;-86
2022/07/18 04:52:45;;;;;;;1.42;1.10;;;;;;;15.08;60.22;98941.91;5012975;28;20111;-87
2022/07/18 04:55:15;;;;;;;1.20;1.10;;;;;;;15.15;59.77;98955.09;5024424;28;20111;-87
2022/07/18 04:57:42;;;;;;;1.08;1.00;;;;;;;15.12;59.27;98953.69;5021473;28;20053;-87
2022/07/18 05:00:14;;;;;;;2.08;1.27;;;;;;;15.16;59.70;98964.63;5021912;28;20037;-87
2022/07/18 05:02:43;;;;;;;2.08;1.17;;;;;;;15.12;59.44;98955.53;5030331;28;20045;-87
2022/07/18 05:05:12;;;;;;;2.55;1.30;;;;;;;15.05;58.00;98967.91;5032268;28;20041;-87
2022/07/18 05:07:41;;;;;;;2.20;1.25;;;;;;;14.72;58.35;98960.88;5030394;28;20048;-86
2022/07/18 05:10:11;;;;;;;1.67;1.30;;;;;;;14.62;59.44;98950.72;5025232;28;20038;-86
2022/07/18 05:12:40;;;;;;;1.55;1.40;;;;;;;14.45;59.44;98950.31;5027119;28;20049;-90
2022/07/18 05:15:11;;;;;;;1.85;1.30;;;;;;;14.41;59.97;98969.38;5034342;28;20613;-89
2022/07/18 05:17:39;;;;;;;1.57;1.43;;;;;;;14.39;60.26;98955.56;5011980;28;20538;-88
2022/07/18 05:20:12;;;;;;;2.30;1.45;;;;;;;14.70;61.43;98969.00;5029828;28;20325;-88
2022/07/18 05:22:40;;;;;;;1.48;1.23;;;;;;;14.87;61.33;98958.00;5024970;28;20091;-88
2022/07/18 05:25:08;;;;;;;1.90;1.40;;;;;;;15.10;61.36;98957.53;5026355;28;20042;-90
2022/07/18 05:27:36;;;;;;;1.23;1.13;;;;;;;15.20;58.70;98958.75;5010457;28;20069;-89
2022/07/18 05:30:07;;;;;;;1.15;1.10;;;;;;;15.22;59.45;98951.41;5034021;28;20041;-90
2022/07/18 05:32:34;;;;;;;1.30;1.20;;;;;;;15.20;58.65;98958.75;5026302;28;20925;-90
2022/07/18 05:35:01;;;;;;;1.45;1.02;;;;;;;15.24;60.05;98954.66;5013261;28;20671;-90
2022/07/18 05:37:28;;;;;;;1.40;1.30;;;;;;;15.35;58.92;98960.31;5021058;28;20091;-90
2022/07/18 05:39:55;;;;;;;1.55;1.30;;;;;;;15.36;58.93;98951.38;5020973;28;20390;-88
2022/07/18 05:42:21;;;;;;;2.67;1.40;;;;;;;15.42;58.53;98966.41;5013012;28;20457;-89
2022/07/18 05:45:09;;;;;;;1.63;1.52;;;;;;;15.49;58.91;98961.88;5003009;28;20073;-89
2022/07/18 05:47:36;;;;;;;1.70;1.60;;;;;;;15.41;59.22;98960.31;5018155;28;20046;-88
2022/07/18 05:50:06;;;;;;;2.63;1.55;;;;;;;15.58;59.71;98957.16;5011077;28;20089;-89
2022/07/18 05:52:34;;;;;;;1.45;1.35;;;;;;;15.78;58.50;98956.09;5022231;28;20061;-89
2022/07/18 05:55:01;;;;;;;1.58;1.20;;;;;;;16.14;57.26;98965.22;5023829;28;20034;-88
2022/07/18 05:57:28;;;;;;;1.90;1.13;;;;;;;16.22;56.27;98949.06;5015685;28;20046;-88
2022/07/18 05:59:54;;;;;;;1.40;1.30;;;;;;;16.44;55.93;98954.00;5020584;28;20551;-88
2022/07/18 06:02:21;;;;;;;1.15;1.02;;;;;;;16.48;55.12;98955.19;5017707;28;20057;-88
2022/07/18 06:04:48;;;;;;;1.70;1.05;;;;;;;16.71;55.76;98966.00;5017744;28;20113;-88
2022/07/18 06:07:35;;;;;;;2.13;1.20;;;;;;;16.85;54.30;98970.19;5015496;28;20033;-88
2022/07/18 06:10:03;;;;;;;1.00;1.00;;;;;;;17.03;54.74;98963.25;5019858;28;20428;-89
2022/07/18 06:12:31;;;;;;;1.50;1.30;;;;;;;17.33;52.54;98964.16;5024723;28;20065;-89
2022/07/18 06:14:59;;;;;;;2.10;1.13;;;;;;;17.67;54.66;98967.19;5027050;28;20516;-88
2022/07/18 06:17:30;;;;;;;1.15;1.05;;;;;;;17.83;49.58;98953.34;5024365;28;20069;-85
2022/07/18 06:20:07;;;;;;;1.38;1.00;;;;;;;18.14;53.46;98959.44;4999348;28;20069;-86
2022/07/18 06:22:36;;;;;;;1.08;0.98;;;;;;;18.37;52.86;98962.13;5020798;28;20049;-86
2022/07/18 06:25:04;;;;;;;0.90;0.90;;;;;;;18.42;49.80;98953.50;5010674;28;20041;-87
2022/07/18 06:27:31;;;;;;;1.30;1.13;;;;;;;18.36;49.58;98936.63;5016111;28;20072;-86
2022/07/18 06:29:59;;;;;;;0.85;0.85;;;;;;;18.74;51.10;98954.00;5022738;28;20543;-87
2022/07/18 06:32:26;;;;;;;1.58;0.85;;;;;;;18.96;49.43;98956.88;5030527;28;20045;-86
2022/07/18 06:34:52;;;;;;;0.75;0.75;;;;;;;19.07;49.02;98925.97;5015924;28;20045;-86
2022/07/18 06:37:19;;;;;;;1.02;0.93;;;;;;;19.39;51.12;98948.47;5018782;28;20045;-86
2022/07/18 06:39:46;;;;;;;1.30;0.90;;;;;;;19.63;49.42;98951.88;5028402;28;20034;-86
2022/07/18 06:42:12;;;;;;;1.08;0.93;;;;;;;19.81;47.88;98948.22;5026736;28;20535;-85
2022/07/18 06:44:39;;;;;;;1.15;0.90;;;;;;;20.00;48.34;98946.16;5026335;28;20046;-85
2022/07/18 06:47:06;;;;;;;2.67;1.15;;;;;;;20.13;44.82;98939.72;5030091;28;20041;-85
2022/07/18 06:49:33;;;;;;;1.08;0.90;;;;;;;20.29;44.45;98944.25;5016489;28;20037;-84
2022/07/18 06:51:59;;;;;;;1.75;1.10;;;;;;;20.49;43.32;98954.44;5030700;28;20788;-85
2022/07/18 06:54:33;;;;;;;;;;;;;;;20.64;43.97;98940.56;5033846;28;20046;-85
2022/07/18 06:56:59;;;;;;;1.30;1.13;;;;;;;20.71;41.60;98925.22;5015270;28;19921;-86
2022/07/18 06:59:26;;;;;;;1.38;1.00;;;;;;;20.91;41.49;98932.66;5020859;28;20482;-85
2022/07/18 07:01:53;;;;;;;1.40;0.90;;;;;;;21.09;42.47;98927.84;5022957;28;20038;-86
2022/07/18 07:04:20;;;;;;;0.90;0.90;;;;;;;21.40;41.53;98927.44;5015341;28;20545;-86
2022/07/18 07:06:46;;;;;;;1.30;1.20;;;;;;;21.48;39.32;98930.50;5014944;28;20444;-86
2022/07/18 07:09:13;;;;;;;2.38;1.13;;;;;;;21.61;39.37;98930.09;5023451;28;20044;-85
2022/07/18 07:11:40;;;;;;;1.40;0.98;;;;;;;21.76;39.11;98932.09;5014588;28;20041;-85
2022/07/18 07:14:07;;;;;;;1.10;1.00;;;;;;;21.86;41.08;98936.75;5024491;28;20049;-85
2022/07/18 07:16:34;;;;;;;1.48;1.10;;;;;;;22.01;40.34;98930.72;5031863;28;20049;-87
2022/07/18 07:19:01;;;;;;;1.23;1.02;;;;;;;22.16;40.33;98934.38;5030629;28;20468;-85
2022/07/18 07:21:28;;;;;;;1.13;1.02;;;;;;;22.34;37.75;98924.38;5028680;28;20034;-84
2022/07/18 07:23:54;;;;;;;1.83;1.20;;;;;;;22.47;38.33;98939.97;5029764;28;20400;-86
2022/07/18 07:26:21;;;;;;;1.00;0.90;;;;;;;22.56;38.21;98932.28;5029928;28;20566;-86
2022/07/18 07:28:48;;;;;;;1.52;1.33;;;;;;;22.54;36.83;98929.84;5026998;28;20041;-86
2022/07/18 07:31:15;;;;;;;0.90;0.90;;;;;;;22.65;38.21;98928.84;5033438;28;20045;-88
2022/07/18 07:33:44;;;;;;;1.85;1.20;;;;;;;22.72;36.43;98933.97;5033873;28;20049;-86
2022/07/18 07:36:11;;;;;;;1.30;1.20;;;;;;;22.58;36.16;98940.84;5004246;28;20046;-86
2022/07/18 07:38:38;;;;;;;1.25;1.15;;;;;;;22.70;36.86;98931.56;5028658;28;20055;-84
2022/07/18 07:41:06;;;;;;;1.90;1.15;;;;;;;23.03;38.21;98948.38;5028469;28;20058;-86
2022/07/18 07:43:36;;;;;;;1.42;1.17;;;;;;;23.11;36.52;98947.88;5025260;28;20045;-84
2022/07/18 07:46:02;;;;;;;1.55;1.10;;;;;;;23.22;36.41;98944.19;5023868;28;20052;-85
2022/07/18 07:48:29;;;;;;;1.35;1.25;;;;;;;23.56;37.54;98950.97;5018956;28;20050;-86
2022/07/18 07:50:56;;;;;;;0.95;0.95;;;;;;;23.67;36.48;98950.78;5025214;28;20056;-86
2022/07/18 07:53:23;;;;;;;1.10;0.90;;;;;;;23.81;37.96;98944.91;5022245;28;20100;-85
2022/07/18 07:55:50;;;;;;;1.02;0.93;;;;;;;24.00;37.23;98954.06;5019767;28;20050;-85
2022/07/18 07:58:17;;;;;;;2.28;1.15;;;;;;;23.99;35.33;98947.06;5022128;28;20065;-87
2022/07/18 08:00:43;;;;;;;1.88;1.05;;;;;;;24.00;36.38;98936.13;5024457;28;20049;-86
2022/07/18 08:03:10;;;;;;;1.20;1.10;;;;;;;24.11;35.09;98938.78;5025671;28;20064;-86
2022/07/18 08:05:45;;;;;;;2.22;1.05;;;;;;;24.24;34.74;98947.13;5023551;28;20053;-90
2022/07/18 08:08:13;;;;;;;1.30;1.17;;;;;;;24.32;35.40;98956.50;5035261;28;20049;-89
2022/07/18 08:10:40;;;;;;;1.20;1.10;;;;;;;24.38;37.09;98943.91;5023282;28;20038;-86
2022/07/18 08:13:12;;;;;;;0.73;0.73;;;;;;;24.54;34.63;98943.66;5029731;28;20047;-86
2022/07/18 08:15:40;;;;;;;1.48;1.10;;;;;;;24.61;36.61;98923.78;5029680;28;20501;-86
2022/07/18 08:18:07;;;;;;;1.35;0.85;;;;;;;24.78;33.68;98922.41;5023238;28;20045;-86
2022/07/18 08:20:46;;;;;;;1.15;1.05;;;;;;;24.67;32.67;98918.16;5013101;28;20128;-86
2022/07/18 08:23:13;;;;;;;1.67;1.20;;;;;;;24.69;34.20;98918.66;5032888;28;20079;-86
2022/07/18 08:25:44;;;;;;;1.20;1.10;;;;;;;24.60;32.16;98920.31;5013266;28;20113;-88
2022/07/18 08:28:11;;;;;;;1.15;1.00;;;;;;;24.92;33.74;98925.31;5016155;28;20053;-86
2022/07/18 08:30:39;;;;;;;1.27;1.10;;;;;;;24.89;32.03;98917.00;5039692;28;20072;-86
2022/07/18 08:33:07;;;;;;;1.70;1.40;;;;;;;24.61;31.00;98919.22;5024429;28;20038;-86
2022/07/18 08:35:36;;;;;;;1.55;1.15;;;;;;;24.80;32.83;98920.25;5013401;28;20046;-87
2022/07/18 08:38:04;;;;;;;1.45;1.20;;;;;;;24.83;31.91;98922.41;5031697;28;20081;-85
2022/07/18 08:40:31;;;;;;;1.42;1.33;;;;;;;24.77;32.11;98930.72;5033297;28;20124;-87
2022/07/18 08:42:59;;;;;;;1.55;1.02;;;;;;;25.00;32.22;98913.22;5032507;28;20073;-84
2022/07/18 08:45:47;;;;;;;1.67;1.10;;;;;;;25.34;31.88;98924.91;5031549;28;20043;-86
2022/07/18 08:48:16;;;;;;;0.93;0.90;;;;;;;25.55;31.87;98922.13;5023652;28;20049;-86
2022/07/18 08:50:47;;;;;;;0.82;0.82;;;;;;;25.73;32.10;98921.53;5016743;28;20038;-88
2022/07/18 08:53:17;;;;;;;0.90;0.90;;;;;;;25.96;32.74;98920.00;5031530;28;20064;-85
2022/07/18 08:55:45;;;;;;;1.13;1.00;;;;;;;26.08;30.09;98917.75;5030702;28;20095;-84
2022/07/18 08:58:14;;;;;;;2.05;1.10;;;;;;;26.03;31.39;98909.75;5021842;28;20046;-87
2022/07/18 09:01:01;;;;;;;0.95;0.90;;;;;;;26.17;30.10;98909.13;5024393;28;20104;-85
2022/07/18 09:03:28;;;;;;;1.85;1.00;;;;;;;26.26;29.83;98902.03;5012408;28;20042;-86
2022/07/18 09:06:12;;;;;;;2.20;1.10;;;;;;;26.38;29.71;98908.63;5019800;28;20427;-86
2022/07/18 09:09:01;;;;;;;1.02;0.90;;;;;;;26.55;28.54;98905.53;5026714;28;20528;-86
2022/07/18 09:11:28;;;;;;;1.48;1.10;;;;;;;26.64;29.63;98908.44;5025486;28;20045;-84
2022/07/18 09:18:48;;;;;;;1.67;1.10;;;;;;;26.65;27.46;98886.63;5026650;28;20037;-87
2022/07/18 09:21:19;;;;;;;0.90;0.90;;;;;;;26.79;27.36;98905.56;5025868;28;20047;-88
2022/07/18 09:23:50;;;;;;;3.35;1.10;;;;;;;26.75;27.84;98892.97;5023347;28;20042;-86
2022/07/18 09:26:35;;;;;;;1.13;0.90;;;;;;;26.93;26.50;98895.72;5022104;28;20128;-84
2022/07/18 09:29:03;;;;;;;1.33;0.80;;;;;;;27.20;27.72;98894.34;5030713;28;20489;-85
2022/07/18 09:31:51;;;;;;;1.00;0.90;;;;;;;27.46;27.35;98903.69;5020255;28;20045;-84
2022/07/18 09:34:39;;;;;;;0.77;0.70;;;;;;;27.59;27.08;98899.50;5027416;28;20459;-89
2022/07/18 09:37:13;;;;;;;3.28;1.00;;;;;;;27.65;26.14;98886.72;5024295;28;20042;-86
2022/07/18 09:39:40;;;;;;;1.30;0.90;;;;;;;27.65;25.86;98887.53;4994638;28;20046;-89
2022/07/18 09:42:16;;;;;;;1.50;0.98;;;;;;;27.73;25.06;98896.88;5002745;28;20046;-87
2022/07/18 09:45:18;;;;;;;1.45;0.80;;;;;;;27.67;25.80;98882.66;5028935;28;20099;-87
2022/07/18 09:47:57;;;;;;;0.95;0.85;;;;;;;27.84;24.27;98892.94;5026276;28;20097;-87
2022/07/18 09:50:34;;;;;;;1.48;1.00;;;;;;;27.89;24.52;98894.72;5024405;28;20042;-90
2022/07/18 09:53:02;;;;;;;0.80;0.77;;;;;;;27.95;25.22;98897.09;5015561;28;20077;-86
2022/07/18 09:56:02;;;;;;;2.60;1.10;;;;;;;27.93;23.80;98888.47;5049091;28;20045;-88
2022/07/18 09:58:36;;;;;;;1.83;1.00;;;;;;;27.96;24.26;98884.41;5011021;28;20046;-87
2022/07/18 10:01:07;;;;;;;1.23;0.90;;;;;;;27.92;23.55;98881.47;5029282;28;20050;-89
2022/07/18 10:03:35;;;;;;;1.00;0.90;;;;;;;27.90;24.05;98875.59;5033837;28;20057;-87
2022/07/18 10:06:03;;;;;;;1.30;0.93;;;;;;;28.00;23.84;98878.09;5028900;28;20128;-91
2022/07/18 10:08:33;;;;;;;1.30;0.80;;;;;;;28.12;25.79;98871.44;5011420;28;20045;-88
2022/07/18 10:11:02;;;;;;;1.17;0.90;;;;;;;28.18;23.44;98870.25;5018783;28;20044;-86
2022/07/18 10:13:32;;;;;;;0.68;0.60;;;;;;;28.38;25.05;98874.56;5028378;28;20041;-83
2022/07/18 10:16:00;;;;;;;1.02;0.93;;;;;;;28.35;23.93;98875.94;5027867;28;20394;-86
2022/07/18 10:18:31;;;;;;;1.23;0.93;;;;;;;28.34;24.28;98868.16;5026987;28;20045;-87
2022/07/18 10:21:02;;;;;;;1.02;0.90;;;;;;;28.57;25.12;98869.06;5024842;28;20498;-88
2022/07/18 10:23:34;;;;;;;0.98;0.70;;;;;;;28.68;24.54;98873.97;5025963;28;20077;-86
2022/07/18 10:26:24;;;;;;;0.70;0.70;;;;;;;28.84;23.63;98869.06;5025840;28;20046;-86
2022/07/18 10:28:56;;;;;;;0.57;0.57;;;;;;;28.91;24.20;98872.19;5023790;28;20120;-88
2022/07/18 10:31:30;;;;;;;0.63;0.63;;;;;;;29.04;24.71;98876.00;5026765;28;20472;-90
2022/07/18 10:34:06;;;;;;;1.00;0.90;;;;;;;29.01;24.53;98874.69;5014127;28;20042;-84
2022/07/18 10:36:34;;;;;;;1.00;0.90;;;;;;;28.95;23.44;98880.50;5020461;28;20056;-87
2022/07/18 10:39:20;;;;;;;1.02;0.90;;;;;;;28.94;25.25;98878.91;5016315;28;20711;-83
2022/07/18 10:41:46;;;;;;;1.20;0.82;;;;;;;29.13;24.69;98876.88;5024016;28;20048;-84
2022/07/18 10:44:40;;;;;;;0.70;0.70;;;;;;;29.30;22.88;98879.75;5024044;28;20111;-85
2022/07/18 10:47:12;;;;;;;0.80;0.60;;;;;;;29.48;23.39;98875.31;5026109;28;20056;-84
2022/07/18 10:49:47;;;;;;;0.40;0.40;;;;;;;29.61;22.98;98868.28;5027501;28;20054;-84
2022/07/18 10:52:36;;;;;;;0.68;0.65;;;;;;;29.67;21.98;98872.47;5025746;28;20078;-84
2022/07/18 10:55:03;;;;;;;2.42;0.85;;;;;;;29.76;22.42;98875.25;5020475;28;20107;-85
2022/07/18 10:57:34;;;;;;;0.60;0.60;;;;;;;29.82;22.28;98874.03;5015297;28;20138;-84
2022/07/18 11:00:13;;;;;;;0.88;0.63;;;;;;;29.70;22.42;98850.22;5018789;28;20093;-85
2022/07/18 11:02:45;;;;;;;1.10;0.60;;;;;;;29.81;22.41;98867.03;5020238;28;20058;-86
2022/07/18 11:05:27;;;;;;;1.25;0.70;;;;;;;29.77;21.90;98871.44;5020947;28;20285;-87
2022/07/18 11:08:02;;;;;;;0.85;0.85;;;;;;;29.92;22.66;98873.75;5017620;28;20049;-84
2022/07/18 11:10:49;;;;;;;1.17;0.70;;;;;;;30.04;22.11;98863.16;5024601;28;20389;-86
2022/07/18 11:13:26;;;;;;;1.17;1.08;;;;;;;29.82;21.75;98853.19;5025579;28;20041;-87
2022/07/18 11:16:12;;;;;;;0.52;0.52;;;;;;;29.86;22.16;98856.06;5024519;28;20073;-83
2022/07/18 11:18:42;;;;;;;0.55;0.55;;;;;;;30.14;22.77;98853.25;5024261;28;20568;-84
2022/07/18 11:21:20;;;;;;;0.50;0.50;;;;;;;30.26;19.97;98845.34;5025757;28;20053;-82
2022/07/18 11:24:09;;;;;;;;;;;;;;;30.27;21.49;98841.53;5020936;28;20049;-82
2022/07/18 11:26:43;;;;;;;0.60;0.60;;;;;;;30.38;21.30;98837.44;5011054;28;19922;-82
2022/07/18 11:29:15;;;;;;;0.47;0.47;;;;;;;30.56;21.67;98841.81;5010875;28;20453;-82
2022/07/18 11:31:55;;;;;;;0.57;0.52;;;;;;;30.70;21.28;98832.81;5022352;28;20052;-83
2022/07/18 11:34:24;;;;;;;0.73;0.60;;;;;;;30.70;20.75;98832.81;5020352;28;20051;-88
2022/07/18 11:37:06;;;;;;;0.60;0.60;;;;;;;30.57;20.04;98840.69;5029275;28;20046;-85
2022/07/18 11:39:34;;;;;;;0.60;0.60;;;;;;;30.61;20.85;98828.16;5022593;28;20100;-86
2022/07/18 11:42:03;;;;;;;0.90;0.70;;;;;;;30.76;20.33;98821.53;5027875;28;20041;-90
2022/07/18 11:44:30;;;;;;;1.58;0.80;;;;;;;30.58;19.28;98819.84;5015169;28;20091;-90
2022/07/18 11:47:07;;;;;;;0.70;0.70;;;;;;;30.66;20.92;98832.63;4999530;28;20072;-83
2022/07/18 11:49:35;;;;;;;0.50;0.50;;;;;;;30.76;20.44;98821.53;5031580;28;20481;-83
2022/07/18 11:52:03;;;;;;;0.82;0.80;;;;;;;30.62;19.52;98816.19;5023915;28;20093;-83
2022/07/18 11:54:32;;;;;;;1.25;0.88;;;;;;;30.79;22.09;98811.97;5025138;28;20041;-85
2022/07/18 11:57:00;;;;;;;0.95;0.80;;;;;;;30.76;21.34;98813.41;5022345;28;20084;-87
2022/07/18 11:59:43;;;;;;;1.48;0.82;;;;;;;30.78;19.45;98808.47;5036429;28;20466;-88
2022/07/18 12:02:11;;;;;;;1.05;0.80;;;;;;;30.67;19.68;98800.94;5030306;28;20029;-83